Time;durP1;ratioP1;P1;durP2;ratioP2;P2;SDS_P1;SDS_P2;PMS_P1;PMS_P2;Temp;Humidity;BMP_temperature;BMP_pressure;BME280_temperature;BME280_humidity;BME280_pressure;Samples;Min_cycle;Max_cycle;Signal;HPM_P1;HPM_P2
2022/08/09 00:02:31;;;;;;;;;4.00;4.00;;;;;18.13;48.70;100882.03;5118702;28;8835;-61
2022/08/09 00:05:00;;;;;;;;;4.80;4.00;;;;;18.09;48.74;100880.63;5118708;28;8836;-62
2022/08/09 00:07:48;;;;;;;;;4.40;4.40;;;;;18.06;49.06;100886.31;5117702;28;8836;-62
2022/08/09 00:10:18;;;;;;;;;7.00;6.00;;;;;18.01;49.03;100884.06;5118442;28;8910;-61
2022/08/09 00:12:52;;;;;;;;;4.00;4.00;;;;;17.98;49.46;100887.03;5118804;28;8912;-62
2022/08/09 00:15:20;;;;;;;;;6.60;6.60;;;;;17.94;49.20;100885.63;5118649;28;8978;-61
2022/08/09 00:18:07;;;;;;;;;6.00;6.00;;;;;17.90;49.22;100886.91;5112251;28;8955;-61
2022/08/09 00:20:39;;;;;;;;;4.00;4.00;;;;;17.85;49.55;100882.94;5097788;28;8818;-62
2022/08/09 00:23:16;;;;;;;;;3.00;3.00;;;;;17.81;49.78;100876.13;5097557;28;8964;-61
2022/08/09 00:26:03;;;;;;;;;4.00;4.00;;;;;17.78;49.84;100876.44;5097833;28;8826;-61
2022/08/09 00:28:31;;;;;;;;;3.50;3.25;;;;;17.74;49.87;100872.31;5104625;28;8820;-62
2022/08/09 00:31:01;;;;;;;;;6.40;3.80;;;;;17.69;49.76;100871.94;5117733;28;8827;-61
2022/08/09 00:33:49;;;;;;;;;6.00;5.00;;;;;17.65;50.00;100874.06;5119706;27;8986;-61
2022/08/09 00:36:18;;;;;;;;;5.00;5.00;;;;;17.62;50.01;100879.72;5138689;27;8837;-62
2022/08/09 00:38:46;;;;;;;;;6.75;6.75;;;;;17.58;50.49;100878.31;5136772;27;8841;-61
2022/08/09 00:41:19;;;;;;;;;3.25;3.25;;;;;17.55;50.09;100870.50;5138866;27;8837;-62
2022/08/09 00:44:07;;;;;;;;;6.00;6.00;;;;;17.53;49.79;100872.50;5138575;27;9007;-61
2022/08/09 00:46:53;;;;;;;;;3.75;3.50;;;;;17.52;50.48;100869.94;5138737;27;8830;-62
2022/08/09 00:49:29;;;;;;;;;6.50;3.00;;;;;17.48;50.31;100869.38;5124780;27;8823;-62
2022/08/09 00:51:57;;;;;;;;;6.00;6.00;;;;;17.47;50.21;100872.22;5117676;28;8868;-61
2022/08/09 00:54:31;;;;;;;;;3.00;3.00;;;;;17.43;50.51;100882.44;5117164;28;8844;-62
2022/08/09 00:57:02;;;;;;;;;4.00;4.00;;;;;17.45;50.70;100879.63;5117810;28;8824;-62
2022/08/09 00:59:37;;;;;;;;;4.00;4.00;;;;;17.45;50.19;100885.84;5131145;27;8837;-61
2022/08/09 01:02:12;;;;;;;;;4.00;4.00;;;;;17.46;50.66;100887.53;5138371;27;8897;-61
2022/08/09 01:04:42;;;;;;;;;3.00;3.00;;;;;17.47;50.31;100875.75;5137981;27;8842;-62
2022/08/09 01:07:10;;;;;;;;;6.75;6.00;;;;;17.48;50.73;100880.16;5138257;27;8855;-61
2022/08/09 01:09:40;;;;;;;;;6.25;5.50;;;;;17.54;50.43;100878.75;5123071;27;8816;-62
2022/08/09 01:12:13;;;;;;;;;7.75;6.00;;;;;17.57;50.42;100883.84;5117544;28;8840;-62
2022/08/09 01:14:41;;;;;;;;;8.00;8.00;;;;;17.55;50.61;100881.28;5117453;28;8836;-61
2022/08/09 01:17:09;;;;;;;;;3.25;3.25;;;;;17.48;50.62;100872.06;5117046;28;9509;-61
2022/08/09 01:19:38;;;;;;;;;6.50;6.50;;;;;17.42;50.92;100878.06;5130599;27;8861;-61
2022/08/09 01:22:18;;;;;;;;;7.50;7.50;;;;;17.35;51.17;100878.72;5137840;27;8977;-62
2022/08/09 01:24:46;;;;;;;;;6.25;6.25;;;;;17.31;51.00;100883.53;5137862;27;9526;-61
2022/08/09 01:27:18;;;;;;;;;6.00;5.00;;;;;17.29;50.86;100885.53;5137588;27;8843;-61
2022/08/09 01:29:46;;;;;;;;;6.50;5.50;;;;;17.27;51.34;100882.13;5122226;27;8936;-61
2022/08/09 01:32:23;;;;;;;;;6.00;4.50;;;;;17.26;51.34;100885.81;5116627;28;8871;-61
2022/08/09 01:35:04;;;;;;;;;6.00;6.00;;;;;17.25;51.54;100883.25;5103789;28;8880;-61
2022/08/09 01:37:52;;;;;;;;;4.75;3.75;;;;;17.22;51.03;100881.69;5095608;28;8846;-61
2022/08/09 01:40:37;;;;;;;;;6.00;4.50;;;;;17.21;51.87;100879.13;5095907;28;8818;-61
2022/08/09 01:43:08;;;;;;;;;4.00;3.75;;;;;17.21;51.85;100879.13;5096229;28;8822;-62
2022/08/09 01:45:36;;;;;;;;;5.00;5.00;;;;;17.16;51.35;100881.41;5095000;28;8950;-62
2022/08/09 01:48:12;;;;;;;;;3.25;3.25;;;;;17.10;51.34;100880.13;5096734;28;8833;-62
2022/08/09 01:50:41;;;;;;;;;4.00;4.00;;;;;17.03;51.63;100879.00;5116384;28;8904;-64
2022/08/09 01:53:15;;;;;;;;;6.25;6.00;;;;;17.00;52.04;100876.56;5116389;28;8912;-61
2022/08/09 01:55:46;;;;;;;;;8.00;6.50;;;;;16.98;51.71;100881.25;5116733;28;8901;-61
2022/08/09 01:58:14;;;;;;;;;6.00;5.50;;;;;16.96;52.42;100879.69;5114912;28;8840;-61
2022/08/09 02:00:42;;;;;;;;;6.00;6.00;;;;;16.91;52.12;100879.25;5096304;28;8895;-62
2022/08/09 02:03:19;;;;;;;;;6.50;6.25;;;;;16.82;52.60;100878.25;5095664;28;8845;-61
2022/08/09 02:05:48;;;;;;;;;5.00;5.00;;;;;16.72;52.38;100881.91;5097163;28;8850;-61
2022/08/09 02:08:30;;;;;;;;;3.50;3.50;;;;;16.61;52.96;100888.25;5096202;28;9865;-62
2022/08/09 02:11:18;;;;;;;;;3.75;3.00;;;;;16.51;53.25;100887.38;5095771;28;8858;-61
2022/08/09 02:13:46;;;;;;;;;7.00;7.00;;;;;16.44;53.16;100890.72;5095819;28;8822;-61
2022/08/09 02:16:34;;;;;;;;;7.00;7.00;;;;;16.38;52.71;100887.75;5110943;28;8808;-61
2022/08/09 02:19:22;;;;;;;;;8.50;8.00;;;;;16.32;53.15;100889.13;5116213;28;8860;-63
2022/08/09 02:21:50;;;;;;;;;4.50;3.25;;;;;16.28;53.17;100890.34;5116373;28;8883;-61
2022/08/09 02:24:22;;;;;;;;;7.00;6.50;;;;;16.23;52.97;100893.44;5115568;28;9524;-61
2022/08/09 02:26:53;;;;;;;;;7.50;6.00;;;;;16.22;53.09;100892.75;5097520;28;8895;-61
2022/08/09 02:29:21;;;;;;;;;3.50;3.50;;;;;16.18;53.11;100893.00;5095780;28;8834;-61
2022/08/09 02:31:49;;;;;;;;;7.00;6.75;;;;;16.17;53.29;100892.28;5095946;28;8965;-61
2022/08/09 02:34:16;;;;;;;;;4.00;4.00;;;;;16.14;53.69;100888.03;5095352;28;8842;-61
2022/08/09 02:37:04;;;;;;;;;8.25;6.75;;;;;16.12;53.37;100881.94;5114633;28;8824;-61
2022/08/09 02:39:33;;;;;;;;;6.25;6.25;;;;;16.12;53.05;100889.13;5115768;28;8897;-61
2022/08/09 02:42:12;;;;;;;;;5.00;3.75;;;;;16.09;53.27;100884.03;5116150;28;8840;-61
2022/08/09 02:44:42;;;;;;;;;4.00;4.00;;;;;16.07;53.72;100875.28;5115563;28;8843;-61
2022/08/09 02:47:11;;;;;;;;;5.00;5.00;;;;;16.05;53.99;100879.91;5115340;28;8897;-62
2022/08/09 02:49:38;;;;;;;;;4.00;3.25;;;;;16.04;53.35;100873.69;5115984;28;8970;-61
2022/08/09 02:52:07;;;;;;;;;6.00;6.00;;;;;16.03;53.44;100879.19;5115894;28;8828;-61
2022/08/09 02:54:35;;;;;;;;;3.75;3.00;;;;;16.01;53.91;100878.50;5115610;28;8999;-61
2022/08/09 02:57:21;;;;;;;;;6.50;5.75;;;;;15.97;54.08;100874.34;5095732;28;8845;-61
2022/08/09 02:59:50;;;;;;;;;4.00;4.00;;;;;15.92;53.96;100873.91;5099307;28;8833;-62
2022/08/09 03:02:37;;;;;;;;;3.00;3.00;;;;;15.91;54.24;100880.28;5098819;28;8858;-64
2022/08/09 03:05:24;;;;;;;;;4.00;3.00;;;;;15.91;53.76;100875.75;5104074;28;8808;-61
2022/08/09 03:07:52;;;;;;;;;8.00;6.50;;;;;15.90;54.11;100878.56;5119664;28;8828;-61
2022/08/09 03:10:21;;;;;;;;;6.00;5.50;;;;;15.85;54.38;100886.19;5119783;28;8823;-62
2022/08/09 03:12:49;;;;;;;;;3.25;3.25;;;;;15.79;54.37;100878.66;5119810;28;8946;-62
2022/08/09 03:15:19;;;;;;;;;5.50;5.50;;;;;15.72;53.80;100882.84;5115341;28;8849;-61
2022/08/09 03:17:49;;;;;;;;;6.00;4.50;;;;;15.68;54.45;100881.38;5099531;28;9012;-62
2022/08/09 03:20:25;;;;;;;;;6.00;5.00;;;;;15.64;54.59;100885.31;5099296;28;8865;-61
2022/08/09 03:22:56;;;;;;;;;8.50;6.75;;;;;15.60;54.68;100876.69;5098620;28;8830;-61
2022/08/09 03:25:40;;;;;;;;;6.00;6.00;;;;;15.58;54.92;100883.16;5105958;28;8843;-62
2022/08/09 03:28:28;;;;;;;;;6.00;5.50;;;;;15.54;54.91;100882.56;5119107;28;8994;-62
2022/08/09 03:30:56;;;;;;;;;6.50;5.25;;;;;15.51;54.17;100877.47;5110618;28;8852;-62
2022/08/09 03:33:25;;;;;;;;;6.50;6.25;;;;;15.50;54.66;100885.66;5118843;28;8804;-62
2022/08/09 03:36:13;;;;;;;;;6.00;6.00;;;;;15.49;54.37;100889.31;5119366;28;8887;-61
2022/08/09 03:38:43;;;;;;;;;8.00;7.00;;;;;15.44;54.74;100881.66;5119002;28;8839;-61
2022/08/09 03:41:11;;;;;;;;;4.00;4.00;;;;;15.43;54.96;100884.47;5109276;28;8952;-62
2022/08/09 03:43:42;;;;;;;;;3.50;3.50;;;;;15.40;55.00;100882.03;5098727;28;8857;-61
2022/08/09 03:46:29;;;;;;;;;7.50;7.00;;;;;15.37;54.83;100883.16;5098483;28;8963;-61
2022/08/09 03:48:58;;;;;;;;;6.00;6.00;;;;;15.36;55.38;100888.63;5098444;28;8822;-62
2022/08/09 03:51:30;;;;;;;;;4.00;4.00;;;;;15.34;55.26;100874.50;5110172;28;8831;-61
2022/08/09 03:54:18;;;;;;;;;5.50;5.50;;;;;15.29;55.18;100877.53;5118098;28;8828;-62
2022/08/09 03:56:57;;;;;;;;;7.00;4.75;;;;;15.26;55.55;100885.00;5118585;28;8828;-62
2022/08/09 03:59:25;;;;;;;;;5.50;5.50;;;;;15.22;55.54;100892.47;5118618;28;8840;-62
2022/08/09 04:02:10;;;;;;;;;8.00;7.00;;;;;15.15;55.84;100895.75;5100887;28;8885;-62
2022/08/09 04:04:40;;;;;;;;;7.00;6.50;;;;;15.07;55.95;100887.50;5098342;28;8834;-62
2022/08/09 04:07:12;;;;;;;;;5.00;4.75;;;;;14.99;55.45;100889.97;5098301;28;8935;-61
2022/08/09 04:09:41;;;;;;;;;11.00;10.50;;;;;14.90;55.73;100886.25;5097407;28;8842;-62
2022/08/09 04:12:19;;;;;;;;;9.75;9.25;;;;;14.81;56.29;100889.66;5115482;28;8818;-62
2022/08/09 04:14:58;;;;;;;;;4.50;4.50;;;;;14.74;56.40;100898.34;5118462;28;8828;-61
2022/08/09 04:17:30;;;;;;;;;6.50;5.00;;;;;14.67;56.54;100899.81;5118241;28;8867;-61
2022/08/09 04:19:59;;;;;;;;;8.00;7.00;;;;;14.61;56.11;100900.28;5117920;28;8982;-62
2022/08/09 04:22:29;;;;;;;;;9.00;6.25;;;;;14.58;56.21;100903.25;5098138;28;8814;-61
2022/08/09 04:24:58;;;;;;;;;9.25;9.25;;;;;14.57;56.33;100904.22;5097932;28;8850;-62
2022/08/09 04:27:27;;;;;;;;;9.75;8.50;;;;;14.57;56.12;100907.75;5097788;28;8826;-63
2022/08/09 04:29:55;;;;;;;;;9.75;9.25;;;;;14.60;55.96;100909.31;5097204;28;8826;-62
2022/08/09 04:32:23;;;;;;;;;5.00;4.00;;;;;14.64;55.93;100910.78;5115522;28;8834;-61
2022/08/09 04:35:03;;;;;;;;;9.75;7.50;;;;;14.68;56.15;100912.22;5130163;27;8826;-62
2022/08/09 04:37:34;;;;;;;;;6.50;6.25;;;;;14.70;56.32;100907.59;5138712;27;8822;-61
2022/08/09 04:40:13;;;;;;;;;6.00;6.00;;;;;14.74;55.94;100917.09;5138227;27;8953;-61
2022/08/09 04:43:00;;;;;;;;;9.50;8.25;;;;;14.77;56.08;100906.97;5117563;28;8856;-61
2022/08/09 04:45:30;;;;;;;;;8.75;8.00;;;;;14.83;56.21;100910.97;5116596;28;8820;-61
2022/08/09 04:48:18;;;;;;;;;6.75;6.75;;;;;14.88;55.59;100912.31;5116340;28;8851;-63
2022/08/09 04:50:45;;;;;;;;;5.00;5.00;;;;;14.96;55.28;100915.22;5116904;27;8847;-62
2022/08/09 04:53:16;;;;;;;;;4.25;4.25;;;;;15.05;55.29;100924.34;5117002;28;8816;-62
2022/08/09 04:55:44;;;;;;;;;8.25;8.25;;;;;15.13;55.30;100922.75;5117403;28;8878;-61
2022/08/09 04:58:25;;;;;;;;;6.25;6.00;;;;;15.26;54.82;100920.72;5117853;28;8893;-62
2022/08/09 05:00:53;;;;;;;;;9.00;7.00;;;;;15.38;55.16;100921.56;5121661;27;8826;-61
2022/08/09 05:03:21;;;;;;;;;7.00;7.00;;;;;15.45;55.26;100912.03;5137771;27;8849;-62
2022/08/09 05:06:09;;;;;;;;;5.00;5.00;;;;;15.54;54.78;100916.63;5135608;27;8848;-61
2022/08/09 05:08:37;;;;;;;;;6.75;6.50;;;;;15.62;54.98;100917.69;5137256;27;8822;-61
2022/08/09 05:11:10;;;;;;;;;6.00;6.00;;;;;15.75;54.47;100918.34;5130081;27;9461;-61
2022/08/09 05:13:39;;;;;;;;;1.00;1.00;;;;;15.90;53.99;100911.66;5116865;28;8954;-61
2022/08/09 05:16:07;;;;;;;;;6.00;6.00;;;;;16.04;53.89;100907.78;5117464;28;8836;-63
2022/08/09 05:18:37;;;;;;;;;6.00;6.00;;;;;16.17;53.62;100917.34;5116984;28;8958;-61
2022/08/09 05:21:24;;;;;;;;;5.75;5.00;;;;;16.33;53.67;100913.16;5124016;27;8869;-62
2022/08/09 05:23:57;;;;;;;;;6.25;5.50;;;;;16.49;53.39;100918.91;5136294;27;8922;-63
2022/08/09 05:26:28;;;;;;;;;8.00;6.75;;;;;16.66;53.48;100923.66;5137088;27;8853;-62
2022/08/09 05:29:03;;;;;;;;;6.00;6.00;;;;;16.78;53.01;100919.88;5136306;27;8834;-61
2022/08/09 05:31:31;;;;;;;;;5.00;4.25;;;;;16.87;53.13;100918.19;5127550;27;8839;-62
2022/08/09 05:34:14;;;;;;;;;4.00;4.00;;;;;16.99;52.68;100928.69;5110205;28;8911;-61
2022/08/09 05:36:43;;;;;;;;;7.00;6.75;;;;;17.13;52.38;100919.38;5096082;28;9531;-62
2022/08/09 05:39:14;;;;;;;;;9.00;7.00;;;;;17.28;52.56;100926.03;5095752;28;8833;-62
2022/08/09 05:41:56;;;;;;;;;7.00;7.00;;;;;17.42;52.67;100931.91;5107649;28;8834;-62
2022/08/09 05:44:30;;;;;;;;;8.00;8.00;;;;;17.54;52.00;100922.69;5115490;28;8851;-62
2022/08/09 05:47:02;;;;;;;;;0.00;0.00;;;;;17.64;51.88;100918.16;5115751;28;8836;-62
2022/08/09 05:49:32;;;;;;;;;6.50;6.50;;;;;17.74;52.22;100916.28;5115939;28;8860;-62
2022/08/09 05:52:20;;;;;;;;;9.00;7.50;;;;;17.84;51.59;100914.44;5098755;28;8854;-62
2022/08/09 05:54:51;;;;;;;;;7.50;6.50;;;;;17.94;51.79;100917.97;5094473;28;8893;-67
2022/08/09 05:57:18;;;;;;;;;7.50;6.50;;;;;18.05;51.54;100912.41;5094447;28;8837;-62
2022/08/09 05:59:51;;;;;;;;;7.00;6.50;;;;;18.21;51.77;100923.41;5094542;28;8868;-61
2022/08/09 06:02:20;;;;;;;;;8.50;8.50;;;;;18.34;51.25;100918.59;5109014;28;8832;-62
2022/08/09 06:04:48;;;;;;;;;3.75;2.00;;;;;18.44;51.61;100926.66;5114008;28;8866;-62
2022/08/09 06:07:16;;;;;;;;;9.00;9.00;;;;;18.56;50.90;100918.22;5114394;28;8827;-63
2022/08/09 06:09:48;;;;;;;;;7.00;7.00;;;;;18.68;50.63;100922.41;5113487;28;8836;-62
2022/08/09 06:12:29;;;;;;;;;6.00;6.00;;;;;18.79;50.76;100924.94;5097056;28;8818;-62
2022/08/09 06:14:57;;;;;;;;;9.20;9.20;;;;;18.92;50.51;100925.44;5092627;28;8845;-62
2022/08/09 06:17:28;;;;;;;;;6.00;6.00;;;;;19.03;50.05;100919.81;5091636;28;8864;-62
2022/08/09 06:20:07;;;;;;;;;6.80;5.80;;;;;19.15;50.47;100918.59;5090782;28;8830;-62
2022/08/09 06:22:35;;;;;;;;;4.00;4.00;;;;;19.27;50.35;100919.25;5089880;28;8822;-62
2022/08/09 06:25:03;;;;;;;;;8.80;8.40;;;;;19.37;50.32;100914.63;5091830;28;8890;-63
2022/08/09 06:27:35;;;;;;;;;5.20;5.20;;;;;19.47;49.95;100927.06;5091881;28;9244;-62
2022/08/09 06:30:18;;;;;;;;;10.80;9.60;;;;;19.58;49.66;100915.16;5090114;28;8892;-61
2022/08/09 06:32:45;;;;;;;;;7.80;7.20;;;;;19.64;50.14;100920.78;5091344;28;8825;-62
2022/08/09 06:35:33;;;;;;;;;7.40;7.20;;;;;19.70;49.97;100917.47;5090649;28;9491;-62
2022/08/09 06:38:20;;;;;;;;;4.00;4.00;;;;;19.79;49.39;100931.91;5090403;28;8862;-61
2022/08/09 06:41:01;;;;;;;;;9.20;8.00;;;;;19.86;49.82;100925.69;5090617;28;8842;-62
2022/08/09 06:43:30;;;;;;;;;7.00;7.00;;;;;19.96;49.81;100926.44;5091985;28;8836;-62
2022/08/09 06:46:00;;;;;;;;;7.00;7.00;;;;;20.08;49.84;100927.06;5093818;28;8853;-62
2022/08/09 06:48:37;;;;;;;;;7.20;7.20;;;;;20.20;49.44;100920.41;5091821;28;8818;-62
2022/08/09 06:51:09;;;;;;;;;6.60;6.60;;;;;20.30;49.48;100919.28;5091594;28;8849;-62
2022/08/09 06:53:38;;;;;;;;;8.00;7.60;;;;;20.40;49.31;100928.13;5092179;28;8872;-62
2022/08/09 06:56:06;;;;;;;;;6.20;6.20;;;;;20.48;49.45;100925.47;5091178;28;8850;-62
2022/08/09 06:58:35;;;;;;;;;7.00;7.00;;;;;20.55;49.44;100923.81;5091175;28;8939;-61
2022/08/09 07:01:23;;;;;;;;;8.00;7.00;;;;;20.64;49.10;100928.25;5091541;28;8866;-62
2022/08/09 07:04:11;;;;;;;;;5.40;5.40;;;;;20.76;49.20;100929.66;5091894;28;8850;-63
2022/08/09 07:06:46;;;;;;;;;5.80;5.80;;;;;20.88;49.38;100930.25;5092733;28;8915;-62
2022/08/09 07:09:19;;;;;;;;;8.00;7.00;;;;;20.96;48.95;100939.28;5092022;28;8822;-62
2022/08/09 07:12:07;;;;;;;;;4.00;2.40;;;;;21.08;48.82;100935.22;5092767;28;8841;-62
2022/08/09 07:14:44;;;;;;;;;5.00;4.00;;;;;21.18;49.21;100933.25;5093075;28;8834;-62
2022/08/09 07:17:18;;;;;;;;;7.20;7.00;;;;;21.26;48.67;100934.09;5093706;28;8868;-62
2022/08/09 07:19:45;;;;;;;;;6.60;5.80;;;;;21.31;49.01;100933.59;5092820;28;8915;-62
2022/08/09 07:22:14;;;;;;;;;8.60;7.80;;;;;21.39;49.10;100936.31;5092723;28;8848;-62
2022/08/09 07:24:44;;;;;;;;;7.60;7.60;;;;;21.46;49.04;100932.78;5093201;28;8930;-62
2022/08/09 07:27:16;;;;;;;;;6.40;6.40;;;;;21.52;49.02;100939.41;5093779;28;8923;-61
2022/08/09 07:30:00;;;;;;;;;6.20;5.60;;;;;21.58;48.58;100938.72;5091005;28;8834;-62
2022/08/09 07:32:28;;;;;;;;;7.80;7.40;;;;;21.70;48.35;100932.00;5091450;28;8984;-62
2022/08/09 07:35:00;;;;;;;;;5.00;5.00;;;;;21.77;48.49;100938.41;5090396;28;8838;-61
2022/08/09 07:37:29;;;;;;;;;7.20;6.40;;;;;21.86;48.72;100930.13;5090595;28;9575;-62
2022/08/09 07:40:09;;;;;;;;;8.80;8.80;;;;;21.97;48.56;100937.06;5091042;28;8873;-63
2022/08/09 07:42:39;;;;;;;;;5.40;5.40;;;;;22.10;47.98;100934.69;5090656;28;8842;-62
2022/08/09 07:45:07;;;;;;;;;5.80;4.40;;;;;22.21;47.87;100931.59;5093588;28;8861;-62
2022/08/09 07:47:55;;;;;;;;;6.80;6.40;;;;;22.32;48.19;100931.28;5093217;28;8996;-61
2022/08/09 07:50:31;;;;;;;;;6.00;5.20;;;;;22.44;47.65;100932.59;5093783;28;9480;-62
2022/08/09 07:53:03;;;;;;;;;6.40;5.80;;;;;22.54;47.60;100928.69;5093376;28;8825;-62
2022/08/09 07:55:31;;;;;;;;;6.80;6.00;;;;;22.64;47.73;100923.91;5094824;28;8862;-62
2022/08/09 07:58:19;;;;;;;;;8.20;5.20;;;;;22.74;47.44;100926.41;5094379;28;8845;-62
2022/08/09 08:00:52;;;;;;;;;6.00;6.00;;;;;22.80;47.78;100923.84;5094948;28;8876;-62
2022/08/09 08:03:22;;;;;;;;;8.20;8.20;;;;;22.83;47.56;100928.09;5094478;28;8837;-63
2022/08/09 08:05:53;;;;;;;;;6.40;6.40;;;;;22.89;47.51;100932.78;5096965;28;8838;-62
2022/08/09 08:08:24;;;;;;;;;7.20;6.40;;;;;22.94;47.46;100930.41;5096433;28;8838;-62
2022/08/09 08:11:12;;;;;;;;;9.40;9.00;;;;;22.99;47.54;100934.28;5093688;28;8846;-62
2022/08/09 08:14:00;;;;;;;;;8.00;6.00;;;;;23.08;47.78;100932.38;5092333;28;8845;-62
2022/08/09 08:16:29;;;;;;;;;7.40;5.60;;;;;23.14;47.08;100931.66;5094282;28;8830;-61
2022/08/09 08:18:58;;;;;;;;;4.80;4.80;;;;;23.20;47.54;100939.13;5095048;28;8846;-61
2022/08/09 08:21:30;;;;;;;;;9.00;8.20;;;;;23.26;47.13;100936.56;5095007;28;8923;-62
2022/08/09 08:23:58;;;;;;;;;8.00;7.80;;;;;23.34;47.45;100936.50;5095463;28;9499;-62
2022/08/09 08:26:27;;;;;;;;;6.00;5.80;;;;;23.39;47.03;100944.97;5095013;28;8889;-61
2022/08/09 08:29:18;;;;;;;;;8.80;6.60;;;;;23.45;47.41;100938.78;5095899;28;8857;-62
2022/08/09 08:31:53;;;;;;;;;8.60;8.40;;;;;23.49;47.32;100948.31;5093477;28;8899;-62
2022/08/09 08:34:32;;;;;;;;;9.20;9.00;;;;;23.54;47.20;100945.91;5093971;28;8826;-65
2022/08/09 08:37:01;;;;;;;;;6.20;6.00;;;;;23.64;47.10;100940.19;5094481;28;8856;-62
2022/08/09 08:39:28;;;;;;;;;8.00;8.00;;;;;23.70;46.97;100939.47;5095035;28;9528;-62
2022/08/09 08:42:10;;;;;;;;;8.20;6.40;;;;;23.79;46.91;100936.50;5094259;28;8834;-62
2022/08/09 08:44:38;;;;;;;;;6.00;6.00;;;;;23.91;46.67;100943.22;5093453;28;8841;-62
2022/08/09 08:47:06;;;;;;;;;5.80;5.80;;;;;24.04;46.63;100939.91;5092763;28;8838;-62
2022/08/09 08:49:39;;;;;;;;;8.80;7.00;;;;;24.13;46.21;100927.91;5092722;28;8841;-62
2022/08/09 08:52:15;;;;;;;;;7.20;6.20;;;;;24.23;46.34;100939.38;5093354;28;8930;-62
2022/08/09 08:55:03;;;;;;;;;8.80;6.00;;;;;24.30;45.89;100933.03;5093501;28;9559;-61
2022/08/09 08:57:32;;;;;;;;;5.40;5.40;;;;;24.34;45.75;100934.31;5093991;28;8965;-63
2022/08/09 09:00:02;;;;;;;;;6.80;6.00;;;;;24.38;46.34;100943.81;5093956;28;8952;-62
2022/08/09 09:02:43;;;;;;;;;7.80;6.40;;;;;24.42;46.12;100936.13;5093493;28;8914;-62
2022/08/09 09:05:16;;;;;;;;;6.20;6.00;;;;;24.52;45.72;100937.56;5093282;28;8984;-62
2022/08/09 09:07:49;;;;;;;;;4.20;4.20;;;;;24.62;46.07;100940.00;5091472;28;8857;-62
2022/08/09 09:10:17;;;;;;;;;8.40;6.00;;;;;24.70;45.45;100940.75;5090978;28;8972;-62
2022/08/09 09:12:45;;;;;;;;;9.20;7.20;;;;;24.77;45.72;100946.28;5092411;28;8856;-63
2022/08/09 09:15:13;;;;;;;;;7.40;7.40;;;;;24.86;45.58;100950.66;5091500;28;8926;-63
2022/08/09 09:17:57;;;;;;;;;7.00;7.00;;;;;24.98;45.50;100949.97;5092795;28;8935;-62
2022/08/09 09:20:25;;;;;;;;;6.60;6.00;;;;;25.10;45.24;100948.44;5093689;28;8985;-62
2022/08/09 09:22:54;;;;;;;;;6.80;6.40;;;;;25.20;45.17;100942.69;5092653;28;8988;-63
2022/08/09 09:25:22;;;;;;;;;7.80;7.80;;;;;25.32;44.75;100947.47;5093161;28;8853;-62
2022/08/09 09:28:10;;;;;;;;;5.00;5.00;;;;;25.47;44.29;100936.53;5094685;28;8873;-63
2022/08/09 09:30:48;;;;;;;;;6.00;5.60;;;;;25.65;44.07;100945.97;5094495;28;8830;-62
2022/08/09 09:33:15;;;;;;;;;6.00;5.60;;;;;25.80;44.13;100933.09;5094047;28;8969;-63
2022/08/09 09:35:44;;;;;;;;;5.20;4.20;;;;;25.87;44.15;100940.31;5093274;28;8837;-61
2022/08/09 09:38:27;;;;;;;;;8.00;7.00;;;;;25.94;43.68;100938.50;5092548;28;8841;-62
2022/08/09 09:41:03;;;;;;;;;7.60;7.20;;;;;26.06;43.47;100931.47;5093160;28;8833;-63
2022/08/09 09:43:36;;;;;;;;;8.00;8.00;;;;;26.20;43.31;100944.19;5090683;28;8911;-62
2022/08/09 09:46:24;;;;;;;;;7.20;6.00;;;;;26.50;42.76;100940.19;5091141;28;8923;-63
2022/08/09 09:49:11;;;;;;;;;7.40;7.40;;;;;26.96;42.19;100941.38;5089888;28;8842;-62
2022/08/09 09:51:40;;;;;;;;;8.00;6.60;;;;;27.47;41.27;100937.16;5091302;28;8854;-62
2022/08/09 09:54:14;;;;;;;;;7.20;7.20;;;;;27.98;40.67;100932.84;5092139;28;8841;-62
2022/08/09 09:56:47;;;;;;;;;7.60;7.00;;;;;28.45;40.15;100940.03;5091790;28;8919;-62
2022/08/09 09:59:35;;;;;;;;;6.00;6.00;;;;;28.93;39.23;100934.03;5091999;28;8878;-63
2022/08/09 10:02:05;;;;;;;;;7.00;7.00;;;;;29.40;39.41;100930.88;5092468;28;8822;-62
2022/08/09 10:04:34;;;;;;;;;7.40;6.80;;;;;29.79;38.18;100940.81;5092329;28;8900;-62
2022/08/09 10:07:02;;;;;;;;;7.00;7.00;;;;;30.16;37.92;100931.66;5090503;28;8837;-63
2022/08/09 10:09:38;;;;;;;;;9.20;8.40;;;;;30.61;37.23;100936.72;5091944;28;8920;-63
2022/08/09 10:12:14;;;;;;;;;7.80;5.80;;;;;31.02;37.12;100935.00;5091599;28;8846;-63
2022/08/09 10:14:56;;;;;;;;;4.80;4.40;;;;;31.44;36.58;100935.97;5091182;28;8877;-62
2022/08/09 10:17:23;;;;;;;;;5.60;5.60;;;;;31.70;36.75;100939.22;5091140;28;8868;-63
2022/08/09 10:20:11;;;;;;;;;8.20;7.60;;;;;32.00;35.97;100936.41;5091509;28;9545;-63
2022/08/09 10:22:42;;;;;;;;;6.20;6.20;;;;;32.24;35.56;100930.72;5093075;28;8837;-62
2022/08/09 10:25:10;;;;;;;;;6.40;6.20;;;;;32.45;35.28;100934.81;5093392;28;8854;-62
2022/08/09 10:27:40;;;;;;;;;6.00;6.00;;;;;32.63;34.96;100930.00;5092115;28;8871;-62
2022/08/09 10:30:22;;;;;;;;;8.00;8.00;;;;;32.91;34.80;100926.56;5090593;28;8829;-63
2022/08/09 10:33:10;;;;;;;;;5.00;4.40;;;;;33.11;34.70;100930.56;5088916;28;8872;-62
2022/08/09 10:35:58;;;;;;;;;7.20;6.20;;;;;33.35;33.60;100914.78;5089276;28;8968;-62
2022/08/09 10:38:28;;;;;;;;;7.20;6.80;;;;;33.53;33.69;100920.94;5088006;28;8858;-63
2022/08/09 10:41:16;;;;;;;;;6.00;6.00;;;;;33.73;33.02;100917.72;5088961;28;8940;-62
2022/08/09 10:43:45;;;;;;;;;9.20;8.20;;;;;33.94;32.54;100922.56;5088785;28;8834;-63
2022/08/09 10:46:26;;;;;;;;;7.00;6.80;;;;;34.14;32.92;100922.91;5088844;28;8906;-63
2022/08/09 10:48:54;;;;;;;;;7.40;7.40;;;;;34.39;32.51;100931.66;5088187;28;8833;-62
2022/08/09 10:51:22;;;;;;;;;5.80;5.20;;;;;34.78;31.87;100922.28;5087930;28;8830;-62
2022/08/09 10:53:57;;;;;;;;;8.00;8.00;;;;;34.95;31.53;100918.38;5089046;28;8834;-63
2022/08/09 10:56:28;;;;;;;;;7.80;7.80;;;;;35.17;31.17;100932.25;5088131;28;8874;-63
2022/08/09 10:58:56;;;;;;;;;7.00;6.80;;;;;35.26;31.18;100937.09;5089557;28;9261;-62
2022/08/09 11:01:23;;;;;;;;;6.80;6.60;;;;;35.36;30.85;100933.59;5091613;28;8973;-62
2022/08/09 11:04:12;;;;;;;;;7.00;7.00;;;;;35.52;30.92;100928.00;5091995;28;8861;-63
2022/08/09 11:06:58;;;;;;;;;7.40;7.40;;;;;35.60;30.79;100934.97;5092155;28;8830;-62
2022/08/09 11:09:27;;;;;;;;;8.20;7.80;;;;;35.72;30.14;100933.75;5091816;28;8837;-62
2022/08/09 11:12:03;;;;;;;;;7.20;7.20;;;;;35.87;30.42;100928.38;5092185;28;8838;-62
2022/08/09 11:14:34;;;;;;;;;8.00;8.00;;;;;36.02;29.99;100924.91;5092023;28;8931;-62
2022/08/09 11:17:04;;;;;;;;;7.80;7.80;;;;;36.18;29.22;100931.19;5092279;28;8943;-63
2022/08/09 11:19:33;;;;;;;;;6.40;6.40;;;;;36.36;28.80;100922.47;5095668;28;8840;-63
2022/08/09 11:22:21;;;;;;;;;6.00;6.00;;;;;36.67;28.97;100924.38;5095654;28;8842;-62
2022/08/09 11:24:52;;;;;;;;;7.80;7.80;;;;;36.81;29.04;100928.31;5093993;28;8858;-62
2022/08/09 11:27:20;;;;;;;;;6.80;6.80;;;;;36.92;28.96;100918.94;5093466;28;8864;-63
2022/08/09 11:30:08;;;;;;;;;8.60;8.60;;;;;37.03;28.47;100914.25;5093246;28;8976;-63
2022/08/09 11:32:55;;;;;;;;;8.00;8.00;;;;;37.25;28.12;100912.97;5092652;28;8845;-63
2022/08/09 11:35:25;;;;;;;;;7.40;6.60;;;;;37.32;27.82;100908.00;5092804;28;8846;-63
2022/08/09 11:38:01;;;;;;;;;7.20;6.40;;;;;37.47;27.92;100899.69;5092537;28;9488;-63
2022/08/09 11:40:31;;;;;;;;;8.20;8.00;;;;;37.61;27.57;100898.09;5093692;28;8868;-63
2022/08/09 11:43:00;;;;;;;;;7.20;7.20;;;;;37.76;27.19;100898.13;5093851;28;9262;-63
2022/08/09 11:45:28;;;;;;;;;6.60;6.00;;;;;38.06;27.16;100895.38;5093897;28;9624;-63
2022/08/09 11:48:10;;;;;;;;;7.40;7.40;;;;;38.35;26.91;100890.91;5092833;28;9250;-63
2022/08/09 11:50:53;;;;;;;;;8.40;8.40;;;;;38.50;26.50;100893.69;5091854;28;8860;-63
2022/08/09 11:53:40;;;;;;;;;6.60;6.60;;;;;38.59;26.36;100885.59;5092172;28;8850;-63
2022/08/09 11:56:28;;;;;;;;;6.00;6.00;;;;;38.58;26.56;100895.06;5092987;28;8869;-63
2022/08/09 11:59:10;;;;;;;;;7.20;7.00;;;;;38.65;26.71;100884.44;5093351;28;8876;-62
2022/08/09 12:01:38;;;;;;;;;7.00;6.00;;;;;38.79;26.07;100891.94;5093914;28;8850;-63
2022/08/09 12:04:26;;;;;;;;;7.20;7.00;;;;;38.73;26.78;100893.06;5092461;28;8869;-63
2022/08/09 12:07:04;;;;;;;;;6.20;6.20;;;;;38.84;26.15;100891.94;5094973;28;8818;-63
2022/08/09 12:09:35;;;;;;;;;2.80;2.80;;;;;38.90;26.57;100890.81;5095101;28;9472;-63